sensor_id;sensor_type;location;lat;lon;timestamp;temperature;humidity
14771;DHT22;7477;45.222;5.688;2022-12-29T00:01:22;4.40;99.90
14771;DHT22;7477;45.222;5.688;2022-12-29T00:04:41;4.30;99.90
14771;DHT22;7477;45.222;5.688;2022-12-29T00:08:01;4.30;99.90
14771;DHT22;7477;45.222;5.688;2022-12-29T00:11:25;4.40;99.90
14771;DHT22;7477;45.222;5.688;2022-12-29T00:14:44;4.30;99.90
14771;DHT22;7477;45.222;5.688;2022-12-29T00:18:22;4.40;99.90
14771;DHT22;7477;45.222;5.688;2022-12-29T00:21:41;4.40;99.90
14771;DHT22;7477;45.222;5.688;2022-12-29T00:25:19;4.40;99.90
14771;DHT22;7477;45.222;5.688;2022-12-29T00:28:58;4.50;99.90
14771;DHT22;7477;45.222;5.688;2022-12-29T00:32:36;4.60;99.90
14771;DHT22;7477;45.222;5.688;2022-12-29T00:36:36;4.70;99.90
14771;DHT22;7477;45.222;5.688;2022-12-29T00:39:55;4.60;99.90
14771;DHT22;7477;45.222;5.688;2022-12-29T00:43:33;4.60;99.90
14771;DHT22;7477;45.222;5.688;2022-12-29T00:47:12;4.60;99.90
14771;DHT22;7477;45.222;5.688;2022-12-29T00:50:31;4.60;99.90
14771;DHT22;7477;45.222;5.688;2022-12-29T00:53:50;4.60;99.90
14771;DHT22;7477;45.222;5.688;2022-12-29T00:57:10;4.60;99.90
14771;DHT22;7477;45.222;5.688;2022-12-29T01:00:29;4.60;99.90
14771;DHT22;7477;45.222;5.688;2022-12-29T01:03:49;4.60;99.90
14771;DHT22;7477;45.222;5.688;2022-12-29T01:07:08;4.60;99.90
14771;DHT22;7477;45.222;5.688;2022-12-29T01:10:27;4.60;99.90
14771;DHT22;7477;45.222;5.688;2022-12-29T01:13:47;4.50;99.90
14771;DHT22;7477;45.222;5.688;2022-12-29T01:17:06;4.50;99.90
14771;DHT22;7477;45.222;5.688;2022-12-29T01:20:25;4.50;99.90
14771;DHT22;7477;45.222;5.688;2022-12-29T01:23:46;4.50;99.90
14771;DHT22;7477;45.222;5.688;2022-12-29T01:27:05;4.50;99.90
14771;DHT22;7477;45.222;5.688;2022-12-29T01:30:25;4.50;99.90
14771;DHT22;7477;45.222;5.688;2022-12-29T01:33:44;4.50;99.90
14771;DHT22;7477;45.222;5.688;2022-12-29T01:37:04;4.50;99.90
14771;DHT22;7477;45.222;5.688;2022-12-29T01:40:23;4.50;99.90
14771;DHT22;7477;45.222;5.688;2022-12-29T01:43:51;4.50;99.90
14771;DHT22;7477;45.222;5.688;2022-12-29T01:47:11;4.50;99.90
14771;DHT22;7477;45.222;5.688;2022-12-29T01:50:37;4.60;99.90
14771;DHT22;7477;45.222;5.688;2022-12-29T01:54:01;4.60;99.90
14771;DHT22;7477;45.222;5.688;2022-12-29T01:57:25;4.70;99.90
14771;DHT22;7477;45.222;5.688;2022-12-29T02:00:46;4.70;99.90
14771;DHT22;7477;45.222;5.688;2022-12-29T02:04:07;4.70;99.90
14771;DHT22;7477;45.222;5.688;2022-12-29T02:07:28;4.70;99.90
14771;DHT22;7477;45.222;5.688;2022-12-29T02:10:48;4.70;99.90
14771;DHT22;7477;45.222;5.688;2022-12-29T02:14:12;4.70;99.90
14771;DHT22;7477;45.222;5.688;2022-12-29T02:18:22;4.80;99.90
14771;DHT22;7477;45.222;5.688;2022-12-29T02:25:20;4.80;99.90
14771;DHT22;7477;45.222;5.688;2022-12-29T02:32:37;4.90;99.90
14771;DHT22;7477;45.222;5.688;2022-12-29T02:36:10;4.90;99.90
14771;DHT22;7477;45.222;5.688;2022-12-29T02:39:50;4.90;99.90
14771;DHT22;7477;45.222;5.688;2022-12-29T02:47:00;4.90;99.90
14771;DHT22;7477;45.222;5.688;2022-12-29T02:50:26;5.00;99.90
14771;DHT22;7477;45.222;5.688;2022-12-29T02:53:48;5.00;99.90
14771;DHT22;7477;45.222;5.688;2022-12-29T02:57:34;5.00;99.90
14771;DHT22;7477;45.222;5.688;2022-12-29T03:12:42;5.00;99.90
14771;DHT22;7477;45.222;5.688;2022-12-29T03:19:52;5.10;99.90
14771;DHT22;7477;45.222;5.688;2022-12-29T03:23:16;5.10;99.90
14771;DHT22;7477;45.222;5.688;2022-12-29T03:26:37;5.10;99.90
14771;DHT22;7477;45.222;5.688;2022-12-29T03:30:03;5.10;99.90
14771;DHT22;7477;45.222;5.688;2022-12-29T03:33:25;5.10;99.90
14771;DHT22;7477;45.222;5.688;2022-12-29T03:36:53;5.10;99.90
14771;DHT22;7477;45.222;5.688;2022-12-29T03:40:14;5.10;99.90
14771;DHT22;7477;45.222;5.688;2022-12-29T03:43:33;5.10;99.90
14771;DHT22;7477;45.222;5.688;2022-12-29T03:46:53;5.10;99.90
14771;DHT22;7477;45.222;5.688;2022-12-29T03:50:13;5.20;99.90
14771;DHT22;7477;45.222;5.688;2022-12-29T03:53:32;5.20;99.90
14771;DHT22;7477;45.222;5.688;2022-12-29T03:56:51;5.20;99.90
14771;DHT22;7477;45.222;5.688;2022-12-29T04:00:11;5.10;99.90
14771;DHT22;7477;45.222;5.688;2022-12-29T04:03:30;5.10;99.90
14771;DHT22;7477;45.222;5.688;2022-12-29T04:06:50;5.10;99.90
14771;DHT22;7477;45.222;5.688;2022-12-29T04:10:10;5.10;99.90
14771;DHT22;7477;45.222;5.688;2022-12-29T04:13:29;5.20;99.90
14771;DHT22;7477;45.222;5.688;2022-12-29T04:16:49;5.20;99.90
14771;DHT22;7477;45.222;5.688;2022-12-29T04:20:08;5.20;99.90
14771;DHT22;7477;45.222;5.688;2022-12-29T04:23:47;5.20;99.90
14771;DHT22;7477;45.222;5.688;2022-12-29T04:27:06;5.20;99.90
14771;DHT22;7477;45.222;5.688;2022-12-29T04:30:25;5.20;99.90
14771;DHT22;7477;45.222;5.688;2022-12-29T04:33:45;5.20;99.90
14771;DHT22;7477;45.222;5.688;2022-12-29T04:37:05;5.20;99.90
14771;DHT22;7477;45.222;5.688;2022-12-29T04:40:24;5.20;99.90
14771;DHT22;7477;45.222;5.688;2022-12-29T04:43:43;5.20;99.90
14771;DHT22;7477;45.222;5.688;2022-12-29T04:47:02;5.20;99.90
14771;DHT22;7477;45.222;5.688;2022-12-29T04:50:22;5.20;99.90
14771;DHT22;7477;45.222;5.688;2022-12-29T04:53:41;5.20;99.90
14771;DHT22;7477;45.222;5.688;2022-12-29T04:57:00;5.30;99.90
14771;DHT22;7477;45.222;5.688;2022-12-29T05:00:20;5.30;99.90
14771;DHT22;7477;45.222;5.688;2022-12-29T05:03:39;5.30;99.90
14771;DHT22;7477;45.222;5.688;2022-12-29T05:06:59;5.30;99.90
14771;DHT22;7477;45.222;5.688;2022-12-29T05:10:19;5.30;99.90
14771;DHT22;7477;45.222;5.688;2022-12-29T05:13:38;5.30;99.90
14771;DHT22;7477;45.222;5.688;2022-12-29T05:16:58;5.30;99.90
14771;DHT22;7477;45.222;5.688;2022-12-29T05:20:17;5.40;99.90
14771;DHT22;7477;45.222;5.688;2022-12-29T05:23:37;5.40;99.90
14771;DHT22;7477;45.222;5.688;2022-12-29T05:26:56;5.40;99.90
14771;DHT22;7477;45.222;5.688;2022-12-29T05:30:15;5.40;99.90
14771;DHT22;7477;45.222;5.688;2022-12-29T05:33:34;5.40;99.90
14771;DHT22;7477;45.222;5.688;2022-12-29T05:36:54;5.40;99.90
14771;DHT22;7477;45.222;5.688;2022-12-29T05:40:13;5.40;99.90
14771;DHT22;7477;45.222;5.688;2022-12-29T05:43:32;5.40;99.90
14771;DHT22;7477;45.222;5.688;2022-12-29T05:46:51;5.40;99.90
14771;DHT22;7477;45.222;5.688;2022-12-29T05:50:11;5.50;99.90
14771;DHT22;7477;45.222;5.688;2022-12-29T05:53:30;5.50;99.90
14771;DHT22;7477;45.222;5.688;2022-12-29T05:56:49;5.50;99.90
14771;DHT22;7477;45.222;5.688;2022-12-29T06:00:10;5.50;99.90
14771;DHT22;7477;45.222;5.688;2022-12-29T06:03:29;5.50;99.90
14771;DHT22;7477;45.222;5.688;2022-12-29T06:06:49;5.50;99.90
14771;DHT22;7477;45.222;5.688;2022-12-29T06:10:08;5.50;99.90
14771;DHT22;7477;45.222;5.688;2022-12-29T06:13:27;5.50;99.90
14771;DHT22;7477;45.222;5.688;2022-12-29T06:16:46;5.60;99.90
14771;DHT22;7477;45.222;5.688;2022-12-29T06:20:06;5.60;99.90
14771;DHT22;7477;45.222;5.688;2022-12-29T06:23:25;5.70;99.90
14771;DHT22;7477;45.222;5.688;2022-12-29T06:26:45;5.70;99.90
14771;DHT22;7477;45.222;5.688;2022-12-29T06:30:05;5.70;99.90
14771;DHT22;7477;45.222;5.688;2022-12-29T06:33:25;5.70;99.90
14771;DHT22;7477;45.222;5.688;2022-12-29T06:36:45;5.80;99.90
14771;DHT22;7477;45.222;5.688;2022-12-29T06:40:04;5.80;99.90
14771;DHT22;7477;45.222;5.688;2022-12-29T06:43:24;5.80;99.90
14771;DHT22;7477;45.222;5.688;2022-12-29T06:46:43;5.80;99.90
14771;DHT22;7477;45.222;5.688;2022-12-29T06:50:03;5.90;99.90
14771;DHT22;7477;45.222;5.688;2022-12-29T06:53:22;6.00;99.90
14771;DHT22;7477;45.222;5.688;2022-12-29T06:56:41;6.00;99.90
14771;DHT22;7477;45.222;5.688;2022-12-29T07:00:03;5.90;99.90
14771;DHT22;7477;45.222;5.688;2022-12-29T07:03:22;5.80;99.90
14771;DHT22;7477;45.222;5.688;2022-12-29T07:06:41;5.90;99.90
14771;DHT22;7477;45.222;5.688;2022-12-29T07:10:00;5.90;99.90
14771;DHT22;7477;45.222;5.688;2022-12-29T07:13:19;5.90;99.90
14771;DHT22;7477;45.222;5.688;2022-12-29T07:16:39;5.90;99.90
14771;DHT22;7477;45.222;5.688;2022-12-29T07:19:59;5.90;99.90
14771;DHT22;7477;45.222;5.688;2022-12-29T07:23:18;6.00;99.90
14771;DHT22;7477;45.222;5.688;2022-12-29T07:26:38;6.00;99.90
14771;DHT22;7477;45.222;5.688;2022-12-29T07:29:57;6.00;99.90
14771;DHT22;7477;45.222;5.688;2022-12-29T07:33:16;6.00;99.90
14771;DHT22;7477;45.222;5.688;2022-12-29T07:36:35;6.00;99.90
14771;DHT22;7477;45.222;5.688;2022-12-29T07:39:54;6.00;99.90
14771;DHT22;7477;45.222;5.688;2022-12-29T07:43:13;6.00;99.90
14771;DHT22;7477;45.222;5.688;2022-12-29T07:46:33;6.00;99.90
14771;DHT22;7477;45.222;5.688;2022-12-29T07:49:52;6.00;99.90
14771;DHT22;7477;45.222;5.688;2022-12-29T07:53:11;6.00;99.90
14771;DHT22;7477;45.222;5.688;2022-12-29T07:56:30;6.00;99.90
14771;DHT22;7477;45.222;5.688;2022-12-29T07:59:49;6.00;99.90
14771;DHT22;7477;45.222;5.688;2022-12-29T08:03:09;6.00;99.90
14771;DHT22;7477;45.222;5.688;2022-12-29T08:06:28;6.10;99.90
14771;DHT22;7477;45.222;5.688;2022-12-29T08:09:49;6.10;99.90
14771;DHT22;7477;45.222;5.688;2022-12-29T08:13:08;6.10;99.90
14771;DHT22;7477;45.222;5.688;2022-12-29T08:16:27;6.10;99.90
14771;DHT22;7477;45.222;5.688;2022-12-29T08:19:47;6.10;99.90
14771;DHT22;7477;45.222;5.688;2022-12-29T08:23:06;6.20;99.90
14771;DHT22;7477;45.222;5.688;2022-12-29T08:26:26;6.30;99.90
14771;DHT22;7477;45.222;5.688;2022-12-29T08:29:45;6.30;99.90
14771;DHT22;7477;45.222;5.688;2022-12-29T08:33:05;6.30;99.90
14771;DHT22;7477;45.222;5.688;2022-12-29T08:36:25;6.40;99.90
14771;DHT22;7477;45.222;5.688;2022-12-29T08:39:44;6.40;99.90
14771;DHT22;7477;45.222;5.688;2022-12-29T08:43:03;6.50;99.90
14771;DHT22;7477;45.222;5.688;2022-12-29T08:46:23;6.50;99.90
14771;DHT22;7477;45.222;5.688;2022-12-29T08:49:42;6.50;99.90
14771;DHT22;7477;45.222;5.688;2022-12-29T08:53:01;6.60;99.90
14771;DHT22;7477;45.222;5.688;2022-12-29T08:56:21;6.60;99.90
14771;DHT22;7477;45.222;5.688;2022-12-29T08:59:42;6.70;99.90
14771;DHT22;7477;45.222;5.688;2022-12-29T09:03:02;6.70;99.90
14771;DHT22;7477;45.222;5.688;2022-12-29T09:06:22;6.70;99.90
14771;DHT22;7477;45.222;5.688;2022-12-29T09:09:41;6.70;99.90
14771;DHT22;7477;45.222;5.688;2022-12-29T09:13:01;6.70;99.90
14771;DHT22;7477;45.222;5.688;2022-12-29T09:16:22;6.70;99.90
14771;DHT22;7477;45.222;5.688;2022-12-29T09:19:42;6.80;99.90
14771;DHT22;7477;45.222;5.688;2022-12-29T09:23:01;6.80;99.90
14771;DHT22;7477;45.222;5.688;2022-12-29T09:26:20;6.80;99.90
14771;DHT22;7477;45.222;5.688;2022-12-29T09:29:39;6.80;99.90
14771;DHT22;7477;45.222;5.688;2022-12-29T09:32:59;6.90;99.90
14771;DHT22;7477;45.222;5.688;2022-12-29T09:36:18;6.90;99.90
14771;DHT22;7477;45.222;5.688;2022-12-29T09:39:37;6.90;99.90
14771;DHT22;7477;45.222;5.688;2022-12-29T09:46:27;7.00;99.90
14771;DHT22;7477;45.222;5.688;2022-12-29T09:49:54;7.00;99.90
14771;DHT22;7477;45.222;5.688;2022-12-29T09:53:25;7.00;99.90
14771;DHT22;7477;45.222;5.688;2022-12-29T09:56:47;7.00;99.90
14771;DHT22;7477;45.222;5.688;2022-12-29T10:00:18;7.10;99.90
14771;DHT22;7477;45.222;5.688;2022-12-29T10:07:30;7.30;99.90
14771;DHT22;7477;45.222;5.688;2022-12-29T10:10:56;7.30;99.90
14771;DHT22;7477;45.222;5.688;2022-12-29T10:24:51;7.60;99.90
14771;DHT22;7477;45.222;5.688;2022-12-29T10:28:37;7.60;99.90
14771;DHT22;7477;45.222;5.688;2022-12-29T10:32:04;7.70;99.90
14771;DHT22;7477;45.222;5.688;2022-12-29T10:35:31;7.80;99.90
14771;DHT22;7477;45.222;5.688;2022-12-29T10:45:44;8.00;99.90
14771;DHT22;7477;45.222;5.688;2022-12-29T10:49:05;8.10;99.90
14771;DHT22;7477;45.222;5.688;2022-12-29T10:52:26;8.20;99.90
14771;DHT22;7477;45.222;5.688;2022-12-29T10:55:47;8.20;99.90
14771;DHT22;7477;45.222;5.688;2022-12-29T10:59:14;8.30;99.90
14771;DHT22;7477;45.222;5.688;2022-12-29T11:02:50;8.40;99.90
14771;DHT22;7477;45.222;5.688;2022-12-29T11:06:38;8.40;99.90
14771;DHT22;7477;45.222;5.688;2022-12-29T11:13:57;8.40;99.90
14771;DHT22;7477;45.222;5.688;2022-12-29T11:17:17;8.50;99.90
14771;DHT22;7477;45.222;5.688;2022-12-29T11:20:38;8.60;99.90
14771;DHT22;7477;45.222;5.688;2022-12-29T11:24:00;8.70;99.90
14771;DHT22;7477;45.222;5.688;2022-12-29T11:27:23;8.80;99.90
14771;DHT22;7477;45.222;5.688;2022-12-29T11:30:43;8.90;99.90
14771;DHT22;7477;45.222;5.688;2022-12-29T11:34:06;9.00;99.90
14771;DHT22;7477;45.222;5.688;2022-12-29T11:37:38;9.00;99.90
14771;DHT22;7477;45.222;5.688;2022-12-29T11:40:58;9.00;99.90
14771;DHT22;7477;45.222;5.688;2022-12-29T11:44:17;9.00;99.90
14771;DHT22;7477;45.222;5.688;2022-12-29T11:47:37;9.00;99.90
14771;DHT22;7477;45.222;5.688;2022-12-29T11:50:58;9.20;99.90
14771;DHT22;7477;45.222;5.688;2022-12-29T11:54:33;9.30;99.90
14771;DHT22;7477;45.222;5.688;2022-12-29T11:57:57;9.40;99.90
14771;DHT22;7477;45.222;5.688;2022-12-29T12:01:34;9.50;99.90
14771;DHT22;7477;45.222;5.688;2022-12-29T12:08:48;9.60;99.90
14771;DHT22;7477;45.222;5.688;2022-12-29T12:12:23;9.60;99.90
14771;DHT22;7477;45.222;5.688;2022-12-29T12:15:49;9.80;99.90
14771;DHT22;7477;45.222;5.688;2022-12-29T12:19:34;9.90;99.90
14771;DHT22;7477;45.222;5.688;2022-12-29T12:23:18;10.00;99.90
14771;DHT22;7477;45.222;5.688;2022-12-29T12:33:35;10.10;99.90
14771;DHT22;7477;45.222;5.688;2022-12-29T12:40:47;10.10;99.90
14771;DHT22;7477;45.222;5.688;2022-12-29T13:02:39;10.80;99.90
14771;DHT22;7477;45.222;5.688;2022-12-29T13:06:34;10.90;99.90
14771;DHT22;7477;45.222;5.688;2022-12-29T13:10:08;10.90;99.90
14771;DHT22;7477;45.222;5.688;2022-12-29T13:17:43;11.00;99.90
14771;DHT22;7477;45.222;5.688;2022-12-29T13:28:57;11.20;99.90
14771;DHT22;7477;45.222;5.688;2022-12-29T13:32:37;11.20;99.90
14771;DHT22;7477;45.222;5.688;2022-12-29T13:40:04;11.20;99.90
14771;DHT22;7477;45.222;5.688;2022-12-29T13:43:31;11.30;99.90
14771;DHT22;7477;45.222;5.688;2022-12-29T13:46:52;11.20;99.90
14771;DHT22;7477;45.222;5.688;2022-12-29T13:50:24;11.20;99.90
14771;DHT22;7477;45.222;5.688;2022-12-29T13:54:15;11.30;99.90
14771;DHT22;7477;45.222;5.688;2022-12-29T14:01:36;11.40;99.90
14771;DHT22;7477;45.222;5.688;2022-12-29T14:05:15;11.40;99.90
14771;DHT22;7477;45.222;5.688;2022-12-29T14:08:44;11.50;99.90
14771;DHT22;7477;45.222;5.688;2022-12-29T14:12:32;11.50;99.90
14771;DHT22;7477;45.222;5.688;2022-12-29T14:15:56;11.40;99.90
14771;DHT22;7477;45.222;5.688;2022-12-29T14:19:29;11.40;99.90
14771;DHT22;7477;45.222;5.688;2022-12-29T14:29:51;11.40;99.90
14771;DHT22;7477;45.222;5.688;2022-12-29T14:33:14;11.40;99.90
14771;DHT22;7477;45.222;5.688;2022-12-29T14:40:14;11.50;99.90
14771;DHT22;7477;45.222;5.688;2022-12-29T14:43:34;11.40;99.90
14771;DHT22;7477;45.222;5.688;2022-12-29T14:53:44;11.40;99.90
14771;DHT22;7477;45.222;5.688;2022-12-29T14:57:14;11.40;99.90
14771;DHT22;7477;45.222;5.688;2022-12-29T15:00:35;11.40;99.90
14771;DHT22;7477;45.222;5.688;2022-12-29T15:03:59;11.40;99.90
14771;DHT22;7477;45.222;5.688;2022-12-29T15:07:20;11.50;99.90
14771;DHT22;7477;45.222;5.688;2022-12-29T15:10:45;11.50;99.90
14771;DHT22;7477;45.222;5.688;2022-12-29T15:17:48;11.40;99.90
14771;DHT22;7477;45.222;5.688;2022-12-29T15:21:13;11.30;99.90
14771;DHT22;7477;45.222;5.688;2022-12-29T15:24:34;11.40;99.90
14771;DHT22;7477;45.222;5.688;2022-12-29T15:27:59;11.40;99.90
14771;DHT22;7477;45.222;5.688;2022-12-29T15:31:22;11.40;99.90
14771;DHT22;7477;45.222;5.688;2022-12-29T15:34:47;11.40;99.90
14771;DHT22;7477;45.222;5.688;2022-12-29T15:38:14;11.40;99.90
14771;DHT22;7477;45.222;5.688;2022-12-29T15:41:46;11.40;99.90
14771;DHT22;7477;45.222;5.688;2022-12-29T15:45:19;11.40;99.90
14771;DHT22;7477;45.222;5.688;2022-12-29T15:48:39;11.30;99.90
14771;DHT22;7477;45.222;5.688;2022-12-29T15:51:59;11.30;99.90
14771;DHT22;7477;45.222;5.688;2022-12-29T15:55:29;11.30;99.90
14771;DHT22;7477;45.222;5.688;2022-12-29T15:58:51;11.30;99.90
14771;DHT22;7477;45.222;5.688;2022-12-29T16:02:11;11.30;99.90
14771;DHT22;7477;45.222;5.688;2022-12-29T16:05:39;11.40;99.90
14771;DHT22;7477;45.222;5.688;2022-12-29T16:09:02;11.40;99.90
14771;DHT22;7477;45.222;5.688;2022-12-29T16:12:31;11.40;99.90
14771;DHT22;7477;45.222;5.688;2022-12-29T16:16:07;11.40;99.90
14771;DHT22;7477;45.222;5.688;2022-12-29T16:22:57;11.50;99.90
14771;DHT22;7477;45.222;5.688;2022-12-29T16:26:19;11.40;99.90
14771;DHT22;7477;45.222;5.688;2022-12-29T16:29:39;11.40;99.90
14771;DHT22;7477;45.222;5.688;2022-12-29T16:33:01;11.40;99.90
14771;DHT22;7477;45.222;5.688;2022-12-29T16:39:44;11.30;99.90
14771;DHT22;7477;45.222;5.688;2022-12-29T16:43:04;11.30;99.90
14771;DHT22;7477;45.222;5.688;2022-12-29T16:46:25;11.30;99.90
14771;DHT22;7477;45.222;5.688;2022-12-29T16:49:51;11.30;99.90
14771;DHT22;7477;45.222;5.688;2022-12-29T16:53:25;11.40;99.90
14771;DHT22;7477;45.222;5.688;2022-12-29T16:56:45;11.40;99.90
14771;DHT22;7477;45.222;5.688;2022-12-29T17:00:07;11.40;99.90
14771;DHT22;7477;45.222;5.688;2022-12-29T17:03:37;11.40;99.90
14771;DHT22;7477;45.222;5.688;2022-12-29T17:06:57;11.40;99.90
14771;DHT22;7477;45.222;5.688;2022-12-29T17:10:17;11.30;99.90
14771;DHT22;7477;45.222;5.688;2022-12-29T17:13:36;11.30;99.90
14771;DHT22;7477;45.222;5.688;2022-12-29T17:16:56;11.30;99.90
14771;DHT22;7477;45.222;5.688;2022-12-29T17:20:25;11.30;99.90
14771;DHT22;7477;45.222;5.688;2022-12-29T17:23:44;11.30;99.90
14771;DHT22;7477;45.222;5.688;2022-12-29T17:27:04;11.30;99.90
14771;DHT22;7477;45.222;5.688;2022-12-29T17:30:25;11.30;99.90
14771;DHT22;7477;45.222;5.688;2022-12-29T17:33:45;11.20;99.90
14771;DHT22;7477;45.222;5.688;2022-12-29T17:37:28;11.20;99.90
14771;DHT22;7477;45.222;5.688;2022-12-29T17:40:48;11.20;99.90
14771;DHT22;7477;45.222;5.688;2022-12-29T17:44:15;11.20;99.90
14771;DHT22;7477;45.222;5.688;2022-12-29T17:47:34;11.20;99.90
14771;DHT22;7477;45.222;5.688;2022-12-29T17:50:56;11.10;99.90
14771;DHT22;7477;45.222;5.688;2022-12-29T17:54:21;11.10;99.90
14771;DHT22;7477;45.222;5.688;2022-12-29T17:57:41;11.10;99.90
14771;DHT22;7477;45.222;5.688;2022-12-29T18:01:02;11.10;99.90
14771;DHT22;7477;45.222;5.688;2022-12-29T18:04:21;11.10;99.90
14771;DHT22;7477;45.222;5.688;2022-12-29T18:07:41;11.10;99.90
14771;DHT22;7477;45.222;5.688;2022-12-29T18:11:00;11.20;99.90
14771;DHT22;7477;45.222;5.688;2022-12-29T18:14:20;11.10;99.90
14771;DHT22;7477;45.222;5.688;2022-12-29T18:17:39;11.10;99.90
14771;DHT22;7477;45.222;5.688;2022-12-29T18:20:58;11.10;99.90
14771;DHT22;7477;45.222;5.688;2022-12-29T18:24:18;11.10;99.90
14771;DHT22;7477;45.222;5.688;2022-12-29T18:27:37;11.10;99.90
14771;DHT22;7477;45.222;5.688;2022-12-29T18:30:59;11.10;99.90
14771;DHT22;7477;45.222;5.688;2022-12-29T18:34:19;11.00;99.90
14771;DHT22;7477;45.222;5.688;2022-12-29T18:37:38;11.00;99.90
14771;DHT22;7477;45.222;5.688;2022-12-29T18:40:58;11.00;99.90
14771;DHT22;7477;45.222;5.688;2022-12-29T18:44:17;10.90;99.90
14771;DHT22;7477;45.222;5.688;2022-12-29T18:47:38;11.00;99.90
14771;DHT22;7477;45.222;5.688;2022-12-29T18:50:57;10.90;99.90
14771;DHT22;7477;45.222;5.688;2022-12-29T18:54:32;10.90;99.90
14771;DHT22;7477;45.222;5.688;2022-12-29T18:57:51;10.90;99.90
14771;DHT22;7477;45.222;5.688;2022-12-29T19:01:25;10.90;99.90
14771;DHT22;7477;45.222;5.688;2022-12-29T19:04:45;10.90;99.90
14771;DHT22;7477;45.222;5.688;2022-12-29T19:08:06;10.90;99.90
14771;DHT22;7477;45.222;5.688;2022-12-29T19:11:26;11.00;99.90
14771;DHT22;7477;45.222;5.688;2022-12-29T19:14:45;11.10;99.90
14771;DHT22;7477;45.222;5.688;2022-12-29T19:18:05;11.10;99.90
14771;DHT22;7477;45.222;5.688;2022-12-29T19:21:25;11.10;99.90
14771;DHT22;7477;45.222;5.688;2022-12-29T19:24:44;11.10;99.90
14771;DHT22;7477;45.222;5.688;2022-12-29T19:28:05;11.10;99.90
14771;DHT22;7477;45.222;5.688;2022-12-29T19:31:25;11.10;99.90
14771;DHT22;7477;45.222;5.688;2022-12-29T19:34:44;11.10;99.90
14771;DHT22;7477;45.222;5.688;2022-12-29T19:38:06;11.30;99.90
14771;DHT22;7477;45.222;5.688;2022-12-29T19:41:26;11.20;99.90
14771;DHT22;7477;45.222;5.688;2022-12-29T19:44:46;11.20;99.90
14771;DHT22;7477;45.222;5.688;2022-12-29T19:48:06;11.20;99.90
14771;DHT22;7477;45.222;5.688;2022-12-29T19:51:26;11.30;99.90
14771;DHT22;7477;45.222;5.688;2022-12-29T19:54:46;11.30;99.90
14771;DHT22;7477;45.222;5.688;2022-12-29T19:58:05;11.30;99.90
14771;DHT22;7477;45.222;5.688;2022-12-29T20:01:24;11.30;99.90
14771;DHT22;7477;45.222;5.688;2022-12-29T20:04:44;11.20;99.90
14771;DHT22;7477;45.222;5.688;2022-12-29T20:08:03;11.10;99.90
14771;DHT22;7477;45.222;5.688;2022-12-29T20:11:23;11.10;99.90
14771;DHT22;7477;45.222;5.688;2022-12-29T20:14:44;11.10;99.90
14771;DHT22;7477;45.222;5.688;2022-12-29T20:18:03;11.10;99.90
14771;DHT22;7477;45.222;5.688;2022-12-29T20:21:23;11.20;99.90
14771;DHT22;7477;45.222;5.688;2022-12-29T20:24:43;11.20;99.90
14771;DHT22;7477;45.222;5.688;2022-12-29T20:28:02;11.20;99.90
14771;DHT22;7477;45.222;5.688;2022-12-29T20:31:28;11.10;99.90
14771;DHT22;7477;45.222;5.688;2022-12-29T20:34:47;11.10;99.90
14771;DHT22;7477;45.222;5.688;2022-12-29T20:38:07;11.00;99.90
14771;DHT22;7477;45.222;5.688;2022-12-29T20:41:27;11.00;99.90
14771;DHT22;7477;45.222;5.688;2022-12-29T20:44:46;10.90;99.90
14771;DHT22;7477;45.222;5.688;2022-12-29T20:48:06;10.90;99.90
14771;DHT22;7477;45.222;5.688;2022-12-29T20:51:26;10.90;99.90
14771;DHT22;7477;45.222;5.688;2022-12-29T20:54:45;10.90;99.90
14771;DHT22;7477;45.222;5.688;2022-12-29T20:58:05;10.90;99.90
14771;DHT22;7477;45.222;5.688;2022-12-29T21:01:24;10.80;99.90
14771;DHT22;7477;45.222;5.688;2022-12-29T21:04:44;10.80;99.90
14771;DHT22;7477;45.222;5.688;2022-12-29T21:08:04;10.80;99.90
14771;DHT22;7477;45.222;5.688;2022-12-29T21:11:23;10.70;99.90
14771;DHT22;7477;45.222;5.688;2022-12-29T21:14:42;10.70;99.90
14771;DHT22;7477;45.222;5.688;2022-12-29T21:18:02;10.70;99.90
14771;DHT22;7477;45.222;5.688;2022-12-29T21:21:23;10.60;99.90
14771;DHT22;7477;45.222;5.688;2022-12-29T21:24:43;10.60;99.90
14771;DHT22;7477;45.222;5.688;2022-12-29T21:28:07;10.60;99.90
14771;DHT22;7477;45.222;5.688;2022-12-29T21:31:29;10.50;99.90
14771;DHT22;7477;45.222;5.688;2022-12-29T21:34:49;10.50;99.90
14771;DHT22;7477;45.222;5.688;2022-12-29T21:38:08;10.50;99.90
14771;DHT22;7477;45.222;5.688;2022-12-29T21:41:28;10.40;99.90
14771;DHT22;7477;45.222;5.688;2022-12-29T21:44:47;10.30;99.90
14771;DHT22;7477;45.222;5.688;2022-12-29T21:48:25;10.30;99.90
14771;DHT22;7477;45.222;5.688;2022-12-29T21:51:47;10.30;99.90
14771;DHT22;7477;45.222;5.688;2022-12-29T21:55:10;10.20;99.90
14771;DHT22;7477;45.222;5.688;2022-12-29T21:58:29;10.10;99.90
14771;DHT22;7477;45.222;5.688;2022-12-29T22:02:34;10.10;99.90
14771;DHT22;7477;45.222;5.688;2022-12-29T22:06:12;10.10;99.90
14771;DHT22;7477;45.222;5.688;2022-12-29T22:09:50;10.00;99.90
14771;DHT22;7477;45.222;5.688;2022-12-29T22:13:37;10.00;99.90
14771;DHT22;7477;45.222;5.688;2022-12-29T22:16:57;10.00;99.90
14771;DHT22;7477;45.222;5.688;2022-12-29T22:20:19;10.00;99.90
14771;DHT22;7477;45.222;5.688;2022-12-29T22:23:38;10.00;99.90
14771;DHT22;7477;45.222;5.688;2022-12-29T22:26:58;10.00;99.90
14771;DHT22;7477;45.222;5.688;2022-12-29T22:30:17;9.90;99.90
14771;DHT22;7477;45.222;5.688;2022-12-29T22:33:37;9.90;99.90
14771;DHT22;7477;45.222;5.688;2022-12-29T22:36:57;10.00;99.90
14771;DHT22;7477;45.222;5.688;2022-12-29T22:40:16;9.90;99.90
14771;DHT22;7477;45.222;5.688;2022-12-29T22:43:36;9.90;99.90
14771;DHT22;7477;45.222;5.688;2022-12-29T22:46:56;9.90;99.90
14771;DHT22;7477;45.222;5.688;2022-12-29T22:50:15;9.90;99.90
14771;DHT22;7477;45.222;5.688;2022-12-29T22:53:34;9.90;99.90
14771;DHT22;7477;45.222;5.688;2022-12-29T22:56:53;9.90;99.90
14771;DHT22;7477;45.222;5.688;2022-12-29T23:00:12;9.90;99.90
14771;DHT22;7477;45.222;5.688;2022-12-29T23:03:32;9.90;99.90
14771;DHT22;7477;45.222;5.688;2022-12-29T23:06:52;9.90;99.90
14771;DHT22;7477;45.222;5.688;2022-12-29T23:10:11;9.80;99.90
14771;DHT22;7477;45.222;5.688;2022-12-29T23:13:32;9.90;99.90
14771;DHT22;7477;45.222;5.688;2022-12-29T23:16:51;9.90;99.90
14771;DHT22;7477;45.222;5.688;2022-12-29T23:20:11;10.00;99.90
14771;DHT22;7477;45.222;5.688;2022-12-29T23:23:30;10.00;99.90
14771;DHT22;7477;45.222;5.688;2022-12-29T23:27:08;10.00;99.90
14771;DHT22;7477;45.222;5.688;2022-12-29T23:30:28;10.10;99.90
14771;DHT22;7477;45.222;5.688;2022-12-29T23:33:47;10.10;99.90
14771;DHT22;7477;45.222;5.688;2022-12-29T23:37:07;10.10;99.90
14771;DHT22;7477;45.222;5.688;2022-12-29T23:40:27;10.10;99.90
14771;DHT22;7477;45.222;5.688;2022-12-29T23:43:46;10.10;99.90
14771;DHT22;7477;45.222;5.688;2022-12-29T23:47:05;10.20;99.90
14771;DHT22;7477;45.222;5.688;2022-12-29T23:50:24;10.20;99.90
14771;DHT22;7477;45.222;5.688;2022-12-29T23:53:44;10.20;99.90
14771;DHT22;7477;45.222;5.688;2022-12-29T23:57:04;10.30;99.90
